This is the latest recevied weather packets stored in our database for station/object DC8RAI-12. If no packets are shown the sender has not sent any weather packets the latest 10 day(s).
| Time | Temp. | Humidity | Pressure | Rain* | Wind** | Luminosity | Snow |
|---|---|---|---|---|---|---|---|
| 1777094079 | 6.11° C | 66% | 1018.6 hPa | - | - | - | - |
| 1777093179 | 3.33° C | 71% | 1018.6 hPa | - | - | - | - |
| 1777092279 | 2.78° C | 70% | 1018.7 hPa | - | - | - | - |
| 1777091379 | 3.33° C | 67% | 1018.5 hPa | - | - | - | - |
| 1777090479 | 2.78° C | 68% | 1018.5 hPa | - | - | - | - |
| 1777089579 | 3.33° C | 67% | 1018.4 hPa | - | - | - | - |
| 1777088679 | 2.22° C | 73% | 1018.4 hPa | - | - | - | - |
| 1777087779 | 3.89° C | 65% | 1018.4 hPa | - | - | - | - |
| 1777086879 | 3.33° C | 67% | 1018.6 hPa | - | - | - | - |
| 1777085978 | 2.78° C | 69% | 1018.5 hPa | - | - | - | - |
| 1777085078 | 3.33° C | 67% | 1018.6 hPa | - | - | - | - |
| 1777084178 | 3.33° C | 69% | 1018.6 hPa | - | - | - | - |
| 1777083278 | 3.89° C | 65% | 1018.6 hPa | - | - | - | - |
| 1777082378 | 4.44° C | 64% | 1018.5 hPa | - | - | - | - |
| 1777081478 | 4.44° C | 64% | 1018.5 hPa | - | - | - | - |
| 1777080577 | 4.44° C | 64% | 1018.6 hPa | - | - | - | - |
| 1777079677 | 4.44° C | 65% | 1018.5 hPa | - | - | - | - |
| 1777078777 | 5° C | 62% | 1018.6 hPa | - | - | - | - |
| 1777077877 | 5.56° C | 60% | 1018.5 hPa | - | - | - | - |
| 1777076977 | 5.56° C | 61% | 1018.6 hPa | - | - | - | - |
| 1777076077 | 5.56° C | 62% | 1018.7 hPa | - | - | - | - |
| 1777075177 | 5.56° C | 63% | 1018.9 hPa | - | - | - | - |
| 1777074277 | 6.11° C | 59% | 1018.9 hPa | - | - | - | - |
| 1777073377 | 6.11° C | 59% | 1018.9 hPa | - | - | - | - |
| 1777072477 | 7.22° C | 56% | 1019 hPa | - | - | - | - |
* Rain since midnight (hover to see other rain measurements)
** Current wind speed in m/s (hover to see current wind gust speed)